sensor_id;sensor_type;location;lat;lon;timestamp;P1;durP1;ratioP1;P2;durP2;ratioP2
16792;SDS011;8513;42.662;23.350;2022-11-15T00:01:09;54.77;;;43.87;;
16792;SDS011;8513;42.662;23.350;2022-11-15T00:03:39;55.20;;;46.40;;
16792;SDS011;8513;42.662;23.350;2022-11-15T00:06:04;56.60;;;44.23;;
16792;SDS011;8513;42.662;23.350;2022-11-15T00:08:30;60.87;;;47.00;;
16792;SDS011;8513;42.662;23.350;2022-11-15T00:10:57;63.13;;;47.73;;
16792;SDS011;8513;42.662;23.350;2022-11-15T00:13:24;62.67;;;47.17;;
16792;SDS011;8513;42.662;23.350;2022-11-15T00:15:50;58.03;;;48.20;;
16792;SDS011;8513;42.662;23.350;2022-11-15T00:18:16;62.20;;;48.13;;
16792;SDS011;8513;42.662;23.350;2022-11-15T00:20:42;59.23;;;47.93;;
16792;SDS011;8513;42.662;23.350;2022-11-15T00:23:08;59.60;;;48.80;;
16792;SDS011;8513;42.662;23.350;2022-11-15T00:25:33;59.30;;;47.27;;
16792;SDS011;8513;42.662;23.350;2022-11-15T00:27:59;62.67;;;46.80;;
16792;SDS011;8513;42.662;23.350;2022-11-15T00:30:26;56.37;;;45.67;;
16792;SDS011;8513;42.662;23.350;2022-11-15T00:32:52;56.97;;;44.80;;
16792;SDS011;8513;42.662;23.350;2022-11-15T00:35:17;58.40;;;45.37;;
16792;SDS011;8513;42.662;23.350;2022-11-15T00:37:43;57.57;;;46.83;;
16792;SDS011;8513;42.662;23.350;2022-11-15T00:40:09;59.10;;;44.70;;
16792;SDS011;8513;42.662;23.350;2022-11-15T00:42:37;61.13;;;46.17;;
16792;SDS011;8513;42.662;23.350;2022-11-15T00:45:03;56.90;;;46.83;;
16792;SDS011;8513;42.662;23.350;2022-11-15T00:47:29;61.10;;;45.20;;
16792;SDS011;8513;42.662;23.350;2022-11-15T00:49:54;54.67;;;44.27;;
16792;SDS011;8513;42.662;23.350;2022-11-15T00:52:20;54.67;;;44.07;;
16792;SDS011;8513;42.662;23.350;2022-11-15T00:54:45;56.03;;;44.30;;
16792;SDS011;8513;42.662;23.350;2022-11-15T00:57:11;51.97;;;43.40;;
16792;SDS011;8513;42.662;23.350;2022-11-15T00:59:36;48.63;;;41.67;;
16792;SDS011;8513;42.662;23.350;2022-11-15T01:02:02;51.33;;;41.60;;
16792;SDS011;8513;42.662;23.350;2022-11-15T01:04:27;55.63;;;44.07;;
16792;SDS011;8513;42.662;23.350;2022-11-15T01:06:53;57.37;;;45.63;;
16792;SDS011;8513;42.662;23.350;2022-11-15T01:09:18;57.30;;;44.50;;
16792;SDS011;8513;42.662;23.350;2022-11-15T01:11:44;53.70;;;42.27;;
16792;SDS011;8513;42.662;23.350;2022-11-15T01:14:09;50.10;;;41.77;;
16792;SDS011;8513;42.662;23.350;2022-11-15T01:16:35;58.67;;;43.83;;
16792;SDS011;8513;42.662;23.350;2022-11-15T01:19:00;53.10;;;42.90;;
16792;SDS011;8513;42.662;23.350;2022-11-15T01:21:25;53.10;;;41.73;;
16792;SDS011;8513;42.662;23.350;2022-11-15T01:23:55;51.47;;;42.00;;
16792;SDS011;8513;42.662;23.350;2022-11-15T01:26:21;51.20;;;41.63;;
16792;SDS011;8513;42.662;23.350;2022-11-15T01:28:48;54.87;;;40.97;;
16792;SDS011;8513;42.662;23.350;2022-11-15T01:31:17;51.10;;;41.67;;
16792;SDS011;8513;42.662;23.350;2022-11-15T01:33:44;52.33;;;41.53;;
16792;SDS011;8513;42.662;23.350;2022-11-15T01:36:12;51.60;;;38.53;;
16792;SDS011;8513;42.662;23.350;2022-11-15T01:38:39;45.00;;;38.43;;
16792;SDS011;8513;42.662;23.350;2022-11-15T01:41:05;47.40;;;38.43;;
16792;SDS011;8513;42.662;23.350;2022-11-15T01:43:32;44.33;;;36.93;;
16792;SDS011;8513;42.662;23.350;2022-11-15T01:46:06;48.90;;;38.70;;
16792;SDS011;8513;42.662;23.350;2022-11-15T01:48:46;47.30;;;37.97;;
16792;SDS011;8513;42.662;23.350;2022-11-15T01:51:15;44.07;;;38.87;;
16792;SDS011;8513;42.662;23.350;2022-11-15T01:53:43;49.87;;;38.63;;
16792;SDS011;8513;42.662;23.350;2022-11-15T01:56:13;61.53;;;42.03;;
16792;SDS011;8513;42.662;23.350;2022-11-15T01:58:45;56.63;;;41.80;;
16792;SDS011;8513;42.662;23.350;2022-11-15T02:01:12;54.17;;;42.77;;
16792;SDS011;8513;42.662;23.350;2022-11-15T02:03:58;51.50;;;41.73;;
16792;SDS011;8513;42.662;23.350;2022-11-15T02:06:27;52.47;;;41.60;;
16792;SDS011;8513;42.662;23.350;2022-11-15T02:08:52;52.13;;;39.33;;
16792;SDS011;8513;42.662;23.350;2022-11-15T02:11:19;46.87;;;38.53;;
16792;SDS011;8513;42.662;23.350;2022-11-15T02:13:44;50.97;;;40.57;;
16792;SDS011;8513;42.662;23.350;2022-11-15T02:18:59;51.37;;;41.77;;
16792;SDS011;8513;42.662;23.350;2022-11-15T02:21:42;54.50;;;42.07;;
16792;SDS011;8513;42.662;23.350;2022-11-15T02:32:44;56.10;;;41.20;;
16792;SDS011;8513;42.662;23.350;2022-11-15T02:40:59;53.53;;;38.37;;
16792;SDS011;8513;42.662;23.350;2022-11-15T02:43:29;46.23;;;37.77;;
16792;SDS011;8513;42.662;23.350;2022-11-15T02:49:26;47.00;;;38.97;;
16792;SDS011;8513;42.662;23.350;2022-11-15T02:51:55;47.47;;;38.60;;
16792;SDS011;8513;42.662;23.350;2022-11-15T02:54:31;51.73;;;39.20;;
16792;SDS011;8513;42.662;23.350;2022-11-15T02:57:01;48.73;;;39.30;;
16792;SDS011;8513;42.662;23.350;2022-11-15T03:10:26;50.50;;;40.27;;
16792;SDS011;8513;42.662;23.350;2022-11-15T03:12:57;48.63;;;39.43;;
16792;SDS011;8513;42.662;23.350;2022-11-15T03:15:37;48.53;;;37.73;;
16792;SDS011;8513;42.662;23.350;2022-11-15T03:21:13;45.63;;;38.07;;
16792;SDS011;8513;42.662;23.350;2022-11-15T03:23:43;51.03;;;39.77;;
16792;SDS011;8513;42.662;23.350;2022-11-15T03:26:11;47.97;;;39.40;;
16792;SDS011;8513;42.662;23.350;2022-11-15T03:31:29;48.97;;;39.67;;
16792;SDS011;8513;42.662;23.350;2022-11-15T03:34:12;46.13;;;38.17;;
16792;SDS011;8513;42.662;23.350;2022-11-15T03:37:00;51.33;;;38.97;;
16792;SDS011;8513;42.662;23.350;2022-11-15T03:39:26;55.73;;;40.37;;
16792;SDS011;8513;42.662;23.350;2022-11-15T03:47:17;46.90;;;38.57;;
16792;SDS011;8513;42.662;23.350;2022-11-15T03:49:49;50.57;;;40.27;;
16792;SDS011;8513;42.662;23.350;2022-11-15T03:52:22;49.13;;;38.60;;
16792;SDS011;8513;42.662;23.350;2022-11-15T03:54:52;49.17;;;40.27;;
16792;SDS011;8513;42.662;23.350;2022-11-15T03:57:20;52.30;;;40.30;;
16792;SDS011;8513;42.662;23.350;2022-11-15T03:59:45;50.73;;;39.63;;
16792;SDS011;8513;42.662;23.350;2022-11-15T04:02:13;51.10;;;39.40;;
16792;SDS011;8513;42.662;23.350;2022-11-15T04:04:39;48.03;;;37.87;;
16792;SDS011;8513;42.662;23.350;2022-11-15T04:07:04;50.83;;;40.23;;
16792;SDS011;8513;42.662;23.350;2022-11-15T04:09:30;55.40;;;40.83;;
16792;SDS011;8513;42.662;23.350;2022-11-15T04:12:21;56.60;;;43.13;;
16792;SDS011;8513;42.662;23.350;2022-11-15T04:14:59;54.67;;;45.03;;
16792;SDS011;8513;42.662;23.350;2022-11-15T04:17:45;58.90;;;45.87;;
16792;SDS011;8513;42.662;23.350;2022-11-15T04:20:22;58.40;;;47.23;;
16792;SDS011;8513;42.662;23.350;2022-11-15T04:23:11;54.47;;;45.07;;
16792;SDS011;8513;42.662;23.350;2022-11-15T04:25:58;63.23;;;44.93;;
16792;SDS011;8513;42.662;23.350;2022-11-15T04:28:26;57.67;;;45.53;;
16792;SDS011;8513;42.662;23.350;2022-11-15T04:30:51;58.93;;;44.77;;
16792;SDS011;8513;42.662;23.350;2022-11-15T04:33:17;57.07;;;44.60;;
16792;SDS011;8513;42.662;23.350;2022-11-15T04:35:42;53.53;;;44.07;;
16792;SDS011;8513;42.662;23.350;2022-11-15T04:38:09;54.23;;;45.77;;
16792;SDS011;8513;42.662;23.350;2022-11-15T04:40:36;54.63;;;44.67;;
16792;SDS011;8513;42.662;23.350;2022-11-15T04:43:02;57.20;;;44.73;;
16792;SDS011;8513;42.662;23.350;2022-11-15T04:45:28;53.53;;;43.30;;
16792;SDS011;8513;42.662;23.350;2022-11-15T04:47:53;51.73;;;42.33;;
16792;SDS011;8513;42.662;23.350;2022-11-15T04:50:19;49.70;;;41.33;;
16792;SDS011;8513;42.662;23.350;2022-11-15T04:52:50;46.50;;;40.73;;
16792;SDS011;8513;42.662;23.350;2022-11-15T04:55:19;48.70;;;41.37;;
16792;SDS011;8513;42.662;23.350;2022-11-15T04:57:45;48.30;;;39.40;;
16792;SDS011;8513;42.662;23.350;2022-11-15T05:00:12;43.67;;;36.80;;
16792;SDS011;8513;42.662;23.350;2022-11-15T05:02:39;35.50;;;29.53;;
16792;SDS011;8513;42.662;23.350;2022-11-15T05:05:24;29.63;;;25.83;;
16792;SDS011;8513;42.662;23.350;2022-11-15T05:07:49;31.37;;;26.97;;
16792;SDS011;8513;42.662;23.350;2022-11-15T05:10:16;34.47;;;27.00;;
16792;SDS011;8513;42.662;23.350;2022-11-15T05:12:42;33.17;;;25.87;;
16792;SDS011;8513;42.662;23.350;2022-11-15T05:15:07;36.50;;;28.27;;
16792;SDS011;8513;42.662;23.350;2022-11-15T05:17:33;43.63;;;27.90;;
16792;SDS011;8513;42.662;23.350;2022-11-15T05:19:59;39.57;;;27.90;;
16792;SDS011;8513;42.662;23.350;2022-11-15T05:22:24;39.13;;;29.13;;
16792;SDS011;8513;42.662;23.350;2022-11-15T05:24:50;38.30;;;29.37;;
16792;SDS011;8513;42.662;23.350;2022-11-15T05:27:15;41.73;;;29.60;;
16792;SDS011;8513;42.662;23.350;2022-11-15T05:29:41;39.90;;;29.33;;
16792;SDS011;8513;42.662;23.350;2022-11-15T05:32:06;39.50;;;29.23;;
16792;SDS011;8513;42.662;23.350;2022-11-15T05:34:34;40.43;;;29.73;;
16792;SDS011;8513;42.662;23.350;2022-11-15T05:36:59;50.90;;;31.97;;
16792;SDS011;8513;42.662;23.350;2022-11-15T05:39:25;44.20;;;32.17;;
16792;SDS011;8513;42.662;23.350;2022-11-15T05:42:10;41.90;;;29.60;;
16792;SDS011;8513;42.662;23.350;2022-11-15T05:44:38;39.93;;;27.60;;
16792;SDS011;8513;42.662;23.350;2022-11-15T05:47:10;35.83;;;26.37;;
16792;SDS011;8513;42.662;23.350;2022-11-15T05:49:41;32.17;;;24.40;;
16792;SDS011;8513;42.662;23.350;2022-11-15T05:52:09;31.60;;;24.83;;
16792;SDS011;8513;42.662;23.350;2022-11-15T05:54:38;34.17;;;24.20;;
16792;SDS011;8513;42.662;23.350;2022-11-15T05:57:04;32.17;;;24.70;;
16792;SDS011;8513;42.662;23.350;2022-11-15T05:59:30;32.50;;;23.47;;
16792;SDS011;8513;42.662;23.350;2022-11-15T06:01:57;32.07;;;23.93;;
16792;SDS011;8513;42.662;23.350;2022-11-15T06:04:23;34.70;;;25.23;;
16792;SDS011;8513;42.662;23.350;2022-11-15T06:06:49;37.10;;;26.40;;
16792;SDS011;8513;42.662;23.350;2022-11-15T06:09:14;34.00;;;24.90;;
16792;SDS011;8513;42.662;23.350;2022-11-15T06:11:40;32.10;;;23.60;;
16792;SDS011;8513;42.662;23.350;2022-11-15T06:14:05;39.30;;;25.37;;
16792;SDS011;8513;42.662;23.350;2022-11-15T06:16:31;31.43;;;22.93;;
16792;SDS011;8513;42.662;23.350;2022-11-15T06:18:56;30.17;;;23.77;;
16792;SDS011;8513;42.662;23.350;2022-11-15T06:21:22;32.27;;;24.17;;
16792;SDS011;8513;42.662;23.350;2022-11-15T06:23:48;32.57;;;23.93;;
16792;SDS011;8513;42.662;23.350;2022-11-15T06:26:13;34.40;;;24.37;;
16792;SDS011;8513;42.662;23.350;2022-11-15T06:28:38;34.70;;;26.10;;
16792;SDS011;8513;42.662;23.350;2022-11-15T06:31:08;37.83;;;27.60;;
16792;SDS011;8513;42.662;23.350;2022-11-15T06:33:36;40.43;;;29.60;;
16792;SDS011;8513;42.662;23.350;2022-11-15T06:36:11;41.60;;;28.57;;
16792;SDS011;8513;42.662;23.350;2022-11-15T06:38:38;43.57;;;30.00;;
16792;SDS011;8513;42.662;23.350;2022-11-15T06:41:05;39.93;;;30.03;;
16792;SDS011;8513;42.662;23.350;2022-11-15T06:43:33;41.20;;;29.63;;
16792;SDS011;8513;42.662;23.350;2022-11-15T06:45:59;41.10;;;30.13;;
16792;SDS011;8513;42.662;23.350;2022-11-15T06:48:26;39.77;;;28.40;;
16792;SDS011;8513;42.662;23.350;2022-11-15T06:50:55;40.03;;;29.53;;
16792;SDS011;8513;42.662;23.350;2022-11-15T06:53:25;35.67;;;27.40;;
16792;SDS011;8513;42.662;23.350;2022-11-15T06:55:51;34.10;;;27.00;;
16792;SDS011;8513;42.662;23.350;2022-11-15T06:58:17;38.17;;;28.27;;
16792;SDS011;8513;42.662;23.350;2022-11-15T07:00:43;39.53;;;28.20;;
16792;SDS011;8513;42.662;23.350;2022-11-15T07:03:08;36.10;;;28.07;;
16792;SDS011;8513;42.662;23.350;2022-11-15T07:05:34;33.30;;;26.03;;
16792;SDS011;8513;42.662;23.350;2022-11-15T07:08:00;36.10;;;28.50;;
16792;SDS011;8513;42.662;23.350;2022-11-15T07:10:26;33.40;;;26.20;;
16792;SDS011;8513;42.662;23.350;2022-11-15T07:12:52;32.97;;;25.80;;
16792;SDS011;8513;42.662;23.350;2022-11-15T07:15:18;31.30;;;26.17;;
16792;SDS011;8513;42.662;23.350;2022-11-15T07:17:45;28.83;;;25.30;;
16792;SDS011;8513;42.662;23.350;2022-11-15T07:20:10;35.90;;;28.43;;
16792;SDS011;8513;42.662;23.350;2022-11-15T07:22:36;31.33;;;26.70;;
16792;SDS011;8513;42.662;23.350;2022-11-15T07:25:02;34.27;;;29.27;;
16792;SDS011;8513;42.662;23.350;2022-11-15T07:27:28;34.73;;;28.07;;
16792;SDS011;8513;42.662;23.350;2022-11-15T07:29:53;32.60;;;27.53;;
16792;SDS011;8513;42.662;23.350;2022-11-15T07:32:18;38.40;;;31.43;;
16792;SDS011;8513;42.662;23.350;2022-11-15T07:34:44;38.97;;;31.47;;
16792;SDS011;8513;42.662;23.350;2022-11-15T07:37:11;38.00;;;30.17;;
16792;SDS011;8513;42.662;23.350;2022-11-15T07:39:37;39.23;;;31.40;;
16792;SDS011;8513;42.662;23.350;2022-11-15T07:42:03;38.03;;;30.33;;
16792;SDS011;8513;42.662;23.350;2022-11-15T07:44:47;38.57;;;29.80;;
16792;SDS011;8513;42.662;23.350;2022-11-15T07:47:12;41.80;;;32.67;;
16792;SDS011;8513;42.662;23.350;2022-11-15T07:49:38;38.13;;;31.87;;
16792;SDS011;8513;42.662;23.350;2022-11-15T07:52:03;41.53;;;33.00;;
16792;SDS011;8513;42.662;23.350;2022-11-15T07:54:29;40.67;;;32.53;;
16792;SDS011;8513;42.662;23.350;2022-11-15T07:56:54;38.73;;;32.67;;
16792;SDS011;8513;42.662;23.350;2022-11-15T07:59:20;41.87;;;33.60;;
16792;SDS011;8513;42.662;23.350;2022-11-15T08:01:45;38.77;;;32.63;;
16792;SDS011;8513;42.662;23.350;2022-11-15T08:04:11;43.93;;;34.87;;
16792;SDS011;8513;42.662;23.350;2022-11-15T08:06:37;49.07;;;34.57;;
16792;SDS011;8513;42.662;23.350;2022-11-15T08:09:03;59.33;;;41.27;;
16792;SDS011;8513;42.662;23.350;2022-11-15T08:11:28;58.93;;;40.97;;
16792;SDS011;8513;42.662;23.350;2022-11-15T08:13:54;65.60;;;43.33;;
16792;SDS011;8513;42.662;23.350;2022-11-15T08:16:20;62.67;;;43.63;;
16792;SDS011;8513;42.662;23.350;2022-11-15T08:18:45;65.93;;;45.00;;
16792;SDS011;8513;42.662;23.350;2022-11-15T08:21:17;57.67;;;42.70;;
16792;SDS011;8513;42.662;23.350;2022-11-15T08:23:44;66.80;;;44.93;;
16792;SDS011;8513;42.662;23.350;2022-11-15T08:26:09;74.87;;;47.87;;
16792;SDS011;8513;42.662;23.350;2022-11-15T08:28:35;64.63;;;45.17;;
16792;SDS011;8513;42.662;23.350;2022-11-15T08:31:00;67.43;;;45.80;;
16792;SDS011;8513;42.662;23.350;2022-11-15T08:33:26;61.77;;;43.07;;
16792;SDS011;8513;42.662;23.350;2022-11-15T08:35:55;56.00;;;41.77;;
16792;SDS011;8513;42.662;23.350;2022-11-15T08:38:21;55.57;;;41.70;;
16792;SDS011;8513;42.662;23.350;2022-11-15T08:40:47;59.63;;;42.47;;
16792;SDS011;8513;42.662;23.350;2022-11-15T08:43:12;56.20;;;42.07;;
16792;SDS011;8513;42.662;23.350;2022-11-15T08:45:38;55.80;;;42.67;;
16792;SDS011;8513;42.662;23.350;2022-11-15T08:48:03;56.53;;;43.20;;
16792;SDS011;8513;42.662;23.350;2022-11-15T08:50:29;58.50;;;42.87;;
16792;SDS011;8513;42.662;23.350;2022-11-15T08:52:55;55.23;;;41.73;;
16792;SDS011;8513;42.662;23.350;2022-11-15T08:55:21;66.10;;;49.00;;
16792;SDS011;8513;42.662;23.350;2022-11-15T08:57:46;60.07;;;44.20;;
16792;SDS011;8513;42.662;23.350;2022-11-15T09:00:12;60.33;;;44.50;;
16792;SDS011;8513;42.662;23.350;2022-11-15T09:02:41;61.30;;;46.00;;
16792;SDS011;8513;42.662;23.350;2022-11-15T09:05:07;63.63;;;45.17;;
16792;SDS011;8513;42.662;23.350;2022-11-15T09:07:33;68.97;;;49.60;;
16792;SDS011;8513;42.662;23.350;2022-11-15T09:09:58;70.33;;;48.77;;
16792;SDS011;8513;42.662;23.350;2022-11-15T09:12:24;67.97;;;47.67;;
16792;SDS011;8513;42.662;23.350;2022-11-15T09:14:50;63.73;;;47.03;;
16792;SDS011;8513;42.662;23.350;2022-11-15T09:17:16;69.73;;;49.97;;
16792;SDS011;8513;42.662;23.350;2022-11-15T09:19:41;67.00;;;47.83;;
16792;SDS011;8513;42.662;23.350;2022-11-15T09:22:07;62.37;;;48.80;;
16792;SDS011;8513;42.662;23.350;2022-11-15T09:24:33;63.87;;;47.73;;
16792;SDS011;8513;42.662;23.350;2022-11-15T09:26:59;61.53;;;45.57;;
16792;SDS011;8513;42.662;23.350;2022-11-15T09:29:25;65.40;;;47.00;;
16792;SDS011;8513;42.662;23.350;2022-11-15T09:31:54;58.03;;;45.00;;
16792;SDS011;8513;42.662;23.350;2022-11-15T09:34:20;62.10;;;45.23;;
16792;SDS011;8513;42.662;23.350;2022-11-15T09:36:46;59.30;;;45.73;;
16792;SDS011;8513;42.662;23.350;2022-11-15T09:39:11;60.23;;;47.37;;
16792;SDS011;8513;42.662;23.350;2022-11-15T09:42:03;65.73;;;46.30;;
16792;SDS011;8513;42.662;23.350;2022-11-15T09:50:16;58.63;;;46.83;;
16792;SDS011;8513;42.662;23.350;2022-11-15T09:52:53;60.93;;;47.03;;
16792;SDS011;8513;42.662;23.350;2022-11-15T09:55:20;58.10;;;47.93;;
16792;SDS011;8513;42.662;23.350;2022-11-15T09:57:54;58.57;;;47.77;;
16792;SDS011;8513;42.662;23.350;2022-11-15T10:00:35;60.87;;;46.83;;
16792;SDS011;8513;42.662;23.350;2022-11-15T10:05:52;62.00;;;49.10;;
16792;SDS011;8513;42.662;23.350;2022-11-15T10:11:07;62.73;;;46.50;;
16792;SDS011;8513;42.662;23.350;2022-11-15T10:13:46;58.50;;;47.17;;
16792;SDS011;8513;42.662;23.350;2022-11-15T10:24:19;64.17;;;47.40;;
16792;SDS011;8513;42.662;23.350;2022-11-15T10:26:48;62.37;;;48.50;;
16792;SDS011;8513;42.662;23.350;2022-11-15T10:29:19;64.87;;;49.87;;
16792;SDS011;8513;42.662;23.350;2022-11-15T10:31:48;60.10;;;46.87;;
16792;SDS011;8513;42.662;23.350;2022-11-15T10:36:56;63.13;;;48.90;;
16792;SDS011;8513;42.662;23.350;2022-11-15T10:39:23;60.13;;;47.27;;
16792;SDS011;8513;42.662;23.350;2022-11-15T10:41:49;62.80;;;49.30;;
16792;SDS011;8513;42.662;23.350;2022-11-15T10:44:25;64.33;;;48.73;;
16792;SDS011;8513;42.662;23.350;2022-11-15T10:49:30;58.20;;;46.87;;
16792;SDS011;8513;42.662;23.350;2022-11-15T10:51:57;58.70;;;43.90;;
16792;SDS011;8513;42.662;23.350;2022-11-15T10:54:24;57.13;;;44.03;;
16792;SDS011;8513;42.662;23.350;2022-11-15T10:56:51;55.03;;;43.70;;
16792;SDS011;8513;42.662;23.350;2022-11-15T10:59:27;55.20;;;43.67;;
16792;SDS011;8513;42.662;23.350;2022-11-15T11:01:55;57.87;;;45.80;;
16792;SDS011;8513;42.662;23.350;2022-11-15T11:04:23;64.93;;;46.97;;
16792;SDS011;8513;42.662;23.350;2022-11-15T11:06:58;61.50;;;46.67;;
16792;SDS011;8513;42.662;23.350;2022-11-15T11:09:35;58.73;;;45.40;;
16792;SDS011;8513;42.662;23.350;2022-11-15T11:12:03;61.70;;;47.57;;
16792;SDS011;8513;42.662;23.350;2022-11-15T11:17:04;65.33;;;46.30;;
16792;SDS011;8513;42.662;23.350;2022-11-15T11:22:13;62.33;;;48.17;;
16792;SDS011;8513;42.662;23.350;2022-11-15T11:24:44;70.57;;;48.77;;
16792;SDS011;8513;42.662;23.350;2022-11-15T11:30:19;67.07;;;46.30;;
16792;SDS011;8513;42.662;23.350;2022-11-15T11:35:38;66.33;;;47.43;;
16792;SDS011;8513;42.662;23.350;2022-11-15T11:38:11;63.57;;;46.80;;
16792;SDS011;8513;42.662;23.350;2022-11-15T11:43:41;60.40;;;47.40;;
16792;SDS011;8513;42.662;23.350;2022-11-15T11:46:25;58.37;;;46.23;;
16792;SDS011;8513;42.662;23.350;2022-11-15T11:49:26;61.17;;;47.17;;
16792;SDS011;8513;42.662;23.350;2022-11-15T11:54:47;62.67;;;46.40;;
16792;SDS011;8513;42.662;23.350;2022-11-15T11:57:32;64.07;;;46.43;;
16792;SDS011;8513;42.662;23.350;2022-11-15T12:02:28;59.57;;;45.50;;
16792;SDS011;8513;42.662;23.350;2022-11-15T12:05:42;62.27;;;48.97;;
16792;SDS011;8513;42.662;23.350;2022-11-15T12:08:04;62.97;;;46.67;;
16792;SDS011;8513;42.662;23.350;2022-11-15T12:11:00;60.00;;;47.07;;
16792;SDS011;8513;42.662;23.350;2022-11-15T12:13:48;59.10;;;46.07;;
16792;SDS011;8513;42.662;23.350;2022-11-15T12:16:28;61.13;;;46.08;;
16792;SDS011;8513;42.662;23.350;2022-11-15T12:19:00;54.47;;;45.23;;
16792;SDS011;8513;42.662;23.350;2022-11-15T12:24:03;53.35;;;41.28;;
16792;SDS011;8513;42.662;23.350;2022-11-15T12:26:41;52.58;;;43.47;;
16792;SDS011;8513;42.662;23.350;2022-11-15T12:29:17;52.30;;;42.95;;
16792;SDS011;8513;42.662;23.350;2022-11-15T12:32:04;50.60;;;42.17;;
16792;SDS011;8513;42.662;23.350;2022-11-15T12:34:43;61.42;;;50.80;;
16792;SDS011;8513;42.662;23.350;2022-11-15T12:45:40;49.50;;;42.58;;
16792;SDS011;8513;42.662;23.350;2022-11-15T12:58:47;51.15;;;45.70;;
16792;SDS011;8513;42.662;23.350;2022-11-15T13:07:05;49.67;;;44.15;;
16792;SDS011;8513;42.662;23.350;2022-11-15T13:12:01;49.22;;;44.05;;
16792;SDS011;8513;42.662;23.350;2022-11-15T13:30:37;50.40;;;41.95;;
16792;SDS011;8513;42.662;23.350;2022-11-15T13:33:19;47.72;;;40.83;;
16792;SDS011;8513;42.662;23.350;2022-11-15T13:35:49;50.00;;;42.40;;
16792;SDS011;8513;42.662;23.350;2022-11-15T13:38:38;48.95;;;41.78;;
16792;SDS011;8513;42.662;23.350;2022-11-15T13:41:23;51.33;;;42.50;;
16792;SDS011;8513;42.662;23.350;2022-11-15T13:43:51;51.05;;;42.75;;
16792;SDS011;8513;42.662;23.350;2022-11-15T13:46:19;52.60;;;40.85;;
16792;SDS011;8513;42.662;23.350;2022-11-15T13:48:51;55.07;;;42.47;;
16792;SDS011;8513;42.662;23.350;2022-11-15T13:56:48;52.73;;;42.30;;
16792;SDS011;8513;42.662;23.350;2022-11-15T13:59:24;50.90;;;42.43;;
16792;SDS011;8513;42.662;23.350;2022-11-15T14:01:53;53.07;;;41.87;;
16792;SDS011;8513;42.662;23.350;2022-11-15T14:04:20;55.00;;;41.67;;
16792;SDS011;8513;42.662;23.350;2022-11-15T14:06:53;58.50;;;43.60;;
16792;SDS011;8513;42.662;23.350;2022-11-15T14:09:31;52.47;;;42.63;;
16792;SDS011;8513;42.662;23.350;2022-11-15T14:11:57;54.47;;;43.50;;
16792;SDS011;8513;42.662;23.350;2022-11-15T14:14:24;54.73;;;43.33;;
16792;SDS011;8513;42.662;23.350;2022-11-15T14:16:52;50.63;;;41.23;;
16792;SDS011;8513;42.662;23.350;2022-11-15T14:24:33;54.37;;;43.27;;
16792;SDS011;8513;42.662;23.350;2022-11-15T14:29:48;59.13;;;44.23;;
16792;SDS011;8513;42.662;23.350;2022-11-15T14:34:44;60.73;;;49.20;;
16792;SDS011;8513;42.662;23.350;2022-11-15T14:37:32;58.33;;;49.03;;
16792;SDS011;8513;42.662;23.350;2022-11-15T14:40:03;68.57;;;51.57;;
16792;SDS011;8513;42.662;23.350;2022-11-15T14:42:30;59.10;;;49.63;;
16792;SDS011;8513;42.662;23.350;2022-11-15T14:44:56;59.67;;;49.00;;
16792;SDS011;8513;42.662;23.350;2022-11-15T14:47:22;59.30;;;48.83;;
16792;SDS011;8513;42.662;23.350;2022-11-15T14:49:47;69.23;;;49.93;;
16792;SDS011;8513;42.662;23.350;2022-11-15T14:52:24;63.73;;;47.83;;
16792;SDS011;8513;42.662;23.350;2022-11-15T14:54:59;63.27;;;49.47;;
16792;SDS011;8513;42.662;23.350;2022-11-15T14:57:27;67.33;;;50.73;;
16792;SDS011;8513;42.662;23.350;2022-11-15T14:59:53;62.57;;;48.07;;
16792;SDS011;8513;42.662;23.350;2022-11-15T15:02:23;62.27;;;49.97;;
16792;SDS011;8513;42.662;23.350;2022-11-15T15:04:50;64.23;;;51.17;;
16792;SDS011;8513;42.662;23.350;2022-11-15T15:07:16;60.90;;;48.40;;
16792;SDS011;8513;42.662;23.350;2022-11-15T15:09:43;64.10;;;50.27;;
16792;SDS011;8513;42.662;23.350;2022-11-15T15:14:48;61.83;;;50.67;;
16792;SDS011;8513;42.662;23.350;2022-11-15T15:17:15;65.27;;;49.97;;
16792;SDS011;8513;42.662;23.350;2022-11-15T15:19:41;66.77;;;51.20;;
16792;SDS011;8513;42.662;23.350;2022-11-15T15:22:12;69.80;;;50.27;;
16792;SDS011;8513;42.662;23.350;2022-11-15T15:24:43;70.60;;;53.20;;
16792;SDS011;8513;42.662;23.350;2022-11-15T15:27:09;67.47;;;53.63;;
16792;SDS011;8513;42.662;23.350;2022-11-15T15:29:35;72.77;;;54.73;;
16792;SDS011;8513;42.662;23.350;2022-11-15T15:32:01;70.97;;;54.03;;
16792;SDS011;8513;42.662;23.350;2022-11-15T15:34:26;68.50;;;55.00;;
16792;SDS011;8513;42.662;23.350;2022-11-15T15:37:08;68.30;;;53.73;;
16792;SDS011;8513;42.662;23.350;2022-11-15T15:39:33;67.97;;;52.60;;
16792;SDS011;8513;42.662;23.350;2022-11-15T15:41:59;69.50;;;52.37;;
16792;SDS011;8513;42.662;23.350;2022-11-15T15:44:24;65.43;;;53.17;;
16792;SDS011;8513;42.662;23.350;2022-11-15T15:46:50;69.60;;;52.33;;
16792;SDS011;8513;42.662;23.350;2022-11-15T15:49:16;69.93;;;53.50;;
16792;SDS011;8513;42.662;23.350;2022-11-15T15:51:41;73.03;;;54.27;;
16792;SDS011;8513;42.662;23.350;2022-11-15T15:54:06;69.23;;;53.27;;
16792;SDS011;8513;42.662;23.350;2022-11-15T15:56:32;71.70;;;53.93;;
16792;SDS011;8513;42.662;23.350;2022-11-15T15:58:57;70.80;;;53.83;;
16792;SDS011;8513;42.662;23.350;2022-11-15T16:01:23;78.37;;;54.27;;
16792;SDS011;8513;42.662;23.350;2022-11-15T16:03:49;74.30;;;53.23;;
16792;SDS011;8513;42.662;23.350;2022-11-15T16:06:32;76.80;;;53.00;;
16792;SDS011;8513;42.662;23.350;2022-11-15T16:09:03;72.57;;;52.80;;
16792;SDS011;8513;42.662;23.350;2022-11-15T16:11:29;74.97;;;54.27;;
16792;SDS011;8513;42.662;23.350;2022-11-15T16:13:54;72.60;;;52.27;;
16792;SDS011;8513;42.662;23.350;2022-11-15T16:16:19;72.83;;;54.67;;
16792;SDS011;8513;42.662;23.350;2022-11-15T16:18:46;75.07;;;54.53;;
16792;SDS011;8513;42.662;23.350;2022-11-15T16:21:12;77.93;;;54.87;;
16792;SDS011;8513;42.662;23.350;2022-11-15T16:23:37;78.47;;;60.50;;
16792;SDS011;8513;42.662;23.350;2022-11-15T16:26:06;81.40;;;61.60;;
16792;SDS011;8513;42.662;23.350;2022-11-15T16:28:50;85.90;;;59.30;;
16792;SDS011;8513;42.662;23.350;2022-11-15T16:31:16;82.53;;;64.73;;
16792;SDS011;8513;42.662;23.350;2022-11-15T16:33:43;86.17;;;65.93;;
16792;SDS011;8513;42.662;23.350;2022-11-15T16:36:17;87.23;;;66.40;;
16792;SDS011;8513;42.662;23.350;2022-11-15T16:38:50;86.47;;;70.70;;
16792;SDS011;8513;42.662;23.350;2022-11-15T16:41:16;85.87;;;68.87;;
16792;SDS011;8513;42.662;23.350;2022-11-15T16:43:46;87.17;;;71.87;;
16792;SDS011;8513;42.662;23.350;2022-11-15T16:46:25;91.73;;;70.27;;
16792;SDS011;8513;42.662;23.350;2022-11-15T16:48:51;86.80;;;71.10;;
16792;SDS011;8513;42.662;23.350;2022-11-15T16:51:20;89.67;;;70.73;;
16792;SDS011;8513;42.662;23.350;2022-11-15T16:53:46;88.83;;;71.43;;
16792;SDS011;8513;42.662;23.350;2022-11-15T16:56:23;84.30;;;69.80;;
16792;SDS011;8513;42.662;23.350;2022-11-15T16:58:53;87.63;;;69.33;;
16792;SDS011;8513;42.662;23.350;2022-11-15T17:01:26;87.33;;;67.80;;
16792;SDS011;8513;42.662;23.350;2022-11-15T17:03:53;94.70;;;68.07;;